LBWN - VARNA

Compiled: 17:52:17 on 22/07/2018

Latest METAR/SPECI Reports

METAR LBWN 221730Z 01013KT 330V050 9999 -TSRA SCT023CB BKN049 25/17 Q1008 TEMPO VRB18G28KT 1500 TSRA SCT030CB=

Previous reports

METAR LBWN 221730Z 01013KT 330V050 9999 -TSRA SCT023CB BKN049 25/17 Q1008 TEMPO VRB18G28KT 1500 TSRA SCT030CB=
METAR LBWN 221700Z 09009KT 9999 VCSH SCT030CB 26/21 Q1007 TEMPO 3000 TSRA SCT030CB=
METAR LBWN 221700Z 09009KT 9999 VCSH SCT030CB 26/21 Q1007 TEMPO 3000 TSRA SCT030CB=
METAR LBWN 221630Z 12007KT 100V160 9999 FEW030TCU 27/21 Q1006 TEMPO 5000 TSRA FEW040CB=

Latest TAF report

TAF LBWN 221700Z 2218/2318 10008KT 9999 SCT045 TEMPO 2218/2220 VRB18G28KT 3000 TSRA SCT010 SCT025CB BKN030 BECMG 2220/2222 VRB04KT PROB40 TEMPO 2222/2301 5000 TSRA SCT030 BKN040 BECMG 2308/2310 07012KT TEMPO 2312/2318 TSRA SCT045CB=

Valid WARNINGS

No valid warnings for LBWN